PWSweather.com
Personal Weather Stations
Station Observations
AF1HS
North Haven, CT 06473

North Haven, CT 06473

Lat: 41.3733, Lon: -72.8413

Elevation: 85.3

Station Type: Oregon Scientific WMR968

http://www.af1hs.com/wx/index.php

High Low Average
Temperature 84.9°F29.4°C 62.4°F16.9°C 72.1°F22.3°C
Dew Point 56.8°F13.8°C 48.9°F9.4°C 52.3°F11.3°C
Winds 5.8 mph 9.3 kmh Calm Calm 1.0 mph SSW1.6 kmh SSW
Wind Gusts 9.2 mph14.8 kmh -- 2.0 mph3.2 kmh
Humidity 72% 34% 52%
Pressure 30.05 in1017.6 mb 29.93 in1013.5 mb -
Precipitation 0.00 in0.0 mm - -
Hour Temp Dew Point Humidity Winds Wind Gusts Pressure Precip Precip Rate Daily Precip Total
12:00 AM 65.1°F18.4°C 53.1°F11.7°C 65% Calm Calm -- 29.96 in1014.6 mb - 0.00 in0.0 mm 0.00 in0.0 mm
12:10 AM 65.1°F18.4°C 53.5°F11.9°C 66% Calm Calm -- 29.96 in1014.6 mb - 0.00 in0.0 mm 0.00 in0.0 mm
12:20 AM 65.0°F18.3°C 52.9°F11.6°C 65% Calm Calm -- 29.96 in1014.6 mb - 0.00 in0.0 mm 0.00 in0.0 mm
12:30 AM 64.9°F18.3°C 52.9°F11.6°C 65% Calm Calm -- 29.96 in1014.6 mb - 0.00 in0.0 mm 0.00 in0.0 mm
12:50 AM 64.7°F18.2°C 53.1°F11.7°C 66% Calm Calm -- 29.96 in1014.6 mb - 0.00 in0.0 mm 0.00 in0.0 mm
01:00 AM 64.6°F18.1°C 53.0°F11.7°C 66% Calm Calm -- 29.96 in1014.6 mb - 0.00 in0.0 mm 0.00 in0.0 mm
01:10 AM 64.6°F18.1°C 53.0°F11.7°C 66% Calm Calm -- 29.96 in1014.6 mb - 0.00 in0.0 mm 0.00 in0.0 mm
01:20 AM 64.4°F18.0°C 52.8°F11.6°C 66% Calm Calm -- 29.96 in1014.6 mb - 0.00 in0.0 mm 0.00 in0.0 mm
01:30 AM 64.4°F18.0°C 52.8°F11.6°C 66% Calm Calm -- 29.96 in1014.6 mb - 0.00 in0.0 mm 0.00 in0.0 mm
01:40 AM 64.4°F18.0°C 52.8°F11.6°C 66% Calm Calm -- 29.96 in1014.6 mb - 0.00 in0.0 mm 0.00 in0.0 mm
01:50 AM 64.2°F17.9°C 52.6°F11.4°C 66% Calm Calm -- 29.94 in1013.9 mb - 0.00 in0.0 mm 0.00 in0.0 mm
02:00 AM 64.2°F17.9°C 52.6°F11.4°C 66% Calm Calm -- 29.93 in1013.5 mb - 0.00 in0.0 mm 0.00 in0.0 mm
02:10 AM 64.2°F17.9°C 52.6°F11.4°C 66% Calm Calm -- 29.96 in1014.6 mb - 0.00 in0.0 mm 0.00 in0.0 mm
02:20 AM 64.0°F17.8°C 52.4°F11.3°C 66% Calm Calm -- 29.93 in1013.5 mb - 0.00 in0.0 mm 0.00 in0.0 mm
02:30 AM 64.0°F17.8°C 52.4°F11.3°C 66% Calm Calm -- 29.93 in1013.5 mb - 0.00 in0.0 mm 0.00 in0.0 mm
02:40 AM 64.0°F17.8°C 52.4°F11.3°C 66% Calm Calm -- 29.96 in1014.6 mb - 0.00 in0.0 mm 0.00 in0.0 mm
02:50 AM 63.9°F17.7°C 52.7°F11.5°C 67% Calm Calm -- 29.96 in1014.6 mb - 0.00 in0.0 mm 0.00 in0.0 mm
03:00 AM 63.7°F17.6°C 52.1°F11.2°C 66% Calm Calm -- 29.96 in1014.6 mb - 0.00 in0.0 mm 0.00 in0.0 mm
03:10 AM 63.5°F17.5°C 51.9°F11.1°C 66% Calm Calm -- 29.96 in1014.6 mb - 0.00 in0.0 mm 0.00 in0.0 mm
03:20 AM 63.3°F17.4°C 51.8°F11.0°C 66% Calm Calm -- 29.96 in1014.6 mb - 0.00 in0.0 mm 0.00 in0.0 mm
03:30 AM 63.3°F17.4°C 51.8°F11.0°C 66% Calm Calm -- 29.96 in1014.6 mb - 0.00 in0.0 mm 0.00 in0.0 mm
03:40 AM 63.1°F17.3°C 51.6°F10.9°C 66% Calm Calm -- 29.96 in1014.6 mb - 0.00 in0.0 mm 0.00 in0.0 mm
03:50 AM 63.0°F17.2°C 51.4°F10.8°C 66% Calm Calm -- 29.93 in1013.5 mb - 0.00 in0.0 mm 0.00 in0.0 mm
04:00 AM 62.8°F17.1°C 51.7°F10.9°C 67% Calm Calm -- 29.93 in1013.5 mb - 0.00 in0.0 mm 0.00 in0.0 mm
04:10 AM 62.8°F17.1°C 51.7°F10.9°C 67% Calm Calm -- 29.96 in1014.6 mb - 0.00 in0.0 mm 0.00 in0.0 mm
04:20 AM 62.8°F17.1°C 51.7°F10.9°C 67% Calm Calm -- 29.96 in1014.6 mb - 0.00 in0.0 mm 0.00 in0.0 mm
04:30 AM 62.6°F17.0°C 51.5°F10.8°C 67% Calm Calm -- 29.96 in1014.6 mb - 0.00 in0.0 mm 0.00 in0.0 mm
04:40 AM 62.4°F16.9°C 51.3°F10.7°C 67% Calm Calm -- 29.96 in1014.6 mb - 0.00 in0.0 mm 0.00 in0.0 mm
04:50 AM 62.4°F16.9°C 51.3°F10.7°C 67% Calm Calm -- 29.96 in1014.6 mb - 0.00 in0.0 mm 0.00 in0.0 mm
05:00 AM 62.4°F16.9°C 51.3°F10.7°C 67% Calm Calm -- 29.96 in1014.6 mb - 0.00 in0.0 mm 0.00 in0.0 mm
05:10 AM 62.4°F16.9°C 51.3°F10.7°C 67% Calm Calm -- 29.96 in1014.6 mb - 0.00 in0.0 mm 0.00 in0.0 mm
05:20 AM 62.6°F17.0°C 51.9°F11.1°C 68% Calm Calm -- 29.99 in1015.6 mb - 0.00 in0.0 mm 0.00 in0.0 mm
05:30 AM 63.0°F17.2°C 52.2°F11.2°C 68% Calm Calm -- 29.99 in1015.6 mb - 0.00 in0.0 mm 0.00 in0.0 mm
05:40 AM 63.0°F17.2°C 52.3°F11.3°C 68% Calm Calm -- 29.99 in1015.6 mb - 0.00 in0.0 mm 0.00 in0.0 mm
05:50 AM 63.4°F17.4°C 52.7°F11.5°C 68% Calm Calm -- 29.99 in1015.6 mb - 0.00 in0.0 mm 0.00 in0.0 mm
06:00 AM 64.1°F17.8°C 53.7°F12.1°C 69% Calm Calm -- 29.99 in1015.6 mb - 0.00 in0.0 mm 0.00 in0.0 mm
06:10 AM 64.7°F18.2°C 55.5°F13.1°C 72% Calm Calm -- 29.99 in1015.6 mb - 0.00 in0.0 mm 0.00 in0.0 mm
06:20 AM 64.8°F18.2°C 55.1°F12.8°C 71% Calm Calm -- 29.99 in1015.6 mb - 0.00 in0.0 mm 0.00 in0.0 mm
06:30 AM 65.4°F18.6°C 55.8°F13.2°C 71% Calm Calm -- 29.99 in1015.6 mb - 0.00 in0.0 mm 0.00 in0.0 mm
06:40 AM 66.1°F18.9°C 56.8°F13.8°C 72% Calm Calm -- 29.99 in1015.6 mb - 0.00 in0.0 mm 0.00 in0.0 mm
06:50 AM 66.5°F19.2°C 55.6°F13.1°C 68% Calm Calm -- 29.99 in1015.6 mb - 0.00 in0.0 mm 0.00 in0.0 mm
07:00 AM 66.7°F19.3°C 54.2°F12.3°C 64% Calm Calm -- 29.99 in1015.6 mb - 0.00 in0.0 mm 0.00 in0.0 mm
07:10 AM 66.6°F19.2°C 52.7°F11.5°C 61% Calm Calm -- 29.99 in1015.6 mb - 0.00 in0.0 mm 0.00 in0.0 mm
07:20 AM 67.8°F19.9°C 53.4°F11.9°C 60% Calm Calm -- 29.99 in1015.6 mb - 0.00 in0.0 mm 0.00 in0.0 mm
07:30 AM 68.5°F20.3°C 52.2°F11.2°C 56% Calm Calm -- 29.99 in1015.6 mb - 0.00 in0.0 mm 0.00 in0.0 mm
07:40 AM 69.7°F20.9°C 51.8°F11.0°C 53% Calm Calm -- 29.99 in1015.6 mb - 0.00 in0.0 mm 0.00 in0.0 mm
07:50 AM 70.3°F21.3°C 51.8°F11.0°C 52% Calm Calm -- 29.99 in1015.6 mb - 0.00 in0.0 mm 0.00 in0.0 mm
08:00 AM 71.2°F21.8°C 51.6°F10.9°C 50% 2.3 mph N3.7 kmh N 3.5 mph5.6 kmh 29.99 in1015.6 mb - 0.00 in0.0 mm 0.00 in0.0 mm
08:10 AM 72.8°F22.7°C 52.5°F11.4°C 49% Calm Calm -- 30.02 in1016.6 mb - 0.00 in0.0 mm 0.00 in0.0 mm
08:20 AM 73.6°F23.1°C 53.2°F11.8°C 49% Calm Calm 3.5 mph5.6 kmh 30.02 in1016.6 mb - 0.00 in0.0 mm 0.00 in0.0 mm
08:30 AM 72.1°F22.3°C 52.4°F11.3°C 50% Calm Calm -- 30.02 in1016.6 mb - 0.00 in0.0 mm 0.00 in0.0 mm
08:40 AM 72.4°F22.4°C 52.7°F11.5°C 50% 1.2 mph NNW1.9 kmh NNW 5.8 mph9.3 kmh 30.02 in1016.6 mb - 0.00 in0.0 mm 0.00 in0.0 mm
08:50 AM 74.0°F23.3°C 53.6°F12.0°C 49% 2.3 mph NW3.7 kmh NW 3.5 mph5.6 kmh 30.02 in1016.6 mb - 0.00 in0.0 mm 0.00 in0.0 mm
09:00 AM 76.1°F24.5°C 52.6°F11.4°C 44% 3.5 mph N5.6 kmh N 5.8 mph9.3 kmh 30.02 in1016.6 mb - 0.00 in0.0 mm 0.00 in0.0 mm
09:10 AM 77.0°F25.0°C 52.2°F11.2°C 42% 4.6 mph NNW7.4 kmh NNW 8.1 mph13.0 kmh 30.02 in1016.6 mb - 0.00 in0.0 mm 0.00 in0.0 mm
09:20 AM 76.4°F24.7°C 52.3°F11.3°C 43% 2.3 mph NNW3.7 kmh NNW 5.8 mph9.3 kmh 30.02 in1016.6 mb - 0.00 in0.0 mm 0.00 in0.0 mm
09:30 AM 76.0°F24.4°C 51.9°F11.1°C 43% 3.5 mph N5.6 kmh N 5.8 mph9.3 kmh 30.02 in1016.6 mb - 0.00 in0.0 mm 0.00 in0.0 mm
09:40 AM 76.6°F24.8°C 51.2°F10.7°C 41% 4.6 mph N7.4 kmh N 5.8 mph9.3 kmh 30.02 in1016.6 mb - 0.00 in0.0 mm 0.00 in0.0 mm
09:50 AM 76.8°F24.9°C 52.0°F11.1°C 42% Calm Calm 4.6 mph7.4 kmh 30.02 in1016.6 mb - 0.00 in0.0 mm 0.00 in0.0 mm
10:00 AM 78.9°F26.1°C 53.8°F12.1°C 42% Calm Calm 4.6 mph7.4 kmh 30.02 in1016.6 mb - 0.00 in0.0 mm 0.00 in0.0 mm
10:10 AM 80.0°F26.7°C 52.8°F11.6°C 39% 3.5 mph NW5.6 kmh NW 5.8 mph9.3 kmh 30.02 in1016.6 mb - 0.00 in0.0 mm 0.00 in0.0 mm
10:20 AM 80.8°F27.1°C 53.6°F12.0°C 39% 3.5 mph N5.6 kmh N 8.1 mph13.0 kmh 30.02 in1016.6 mb - 0.00 in0.0 mm 0.00 in0.0 mm
10:30 AM 80.1°F26.7°C 52.9°F11.6°C 39% 3.5 mph N5.6 kmh N 3.5 mph5.6 kmh 30.02 in1016.6 mb - 0.00 in0.0 mm 0.00 in0.0 mm
10:40 AM 81.7°F27.6°C 54.3°F12.4°C 39% 1.2 mph N1.9 kmh N 3.5 mph5.6 kmh 30.02 in1016.6 mb - 0.00 in0.0 mm 0.00 in0.0 mm
10:50 AM 82.2°F27.9°C 54.1°F12.3°C 38% 3.5 mph N5.6 kmh N 3.5 mph5.6 kmh 30.02 in1016.6 mb - 0.00 in0.0 mm 0.00 in0.0 mm
11:00 AM 82.7°F28.2°C 53.8°F12.1°C 37% 3.5 mph N5.6 kmh N 5.8 mph9.3 kmh 30.02 in1016.6 mb - 0.00 in0.0 mm 0.00 in0.0 mm
11:10 AM 81.5°F27.5°C 52.7°F11.5°C 37% 2.3 mph NE3.7 kmh NE 5.8 mph9.3 kmh 30.02 in1016.6 mb - 0.00 in0.0 mm 0.00 in0.0 mm
11:20 AM 83.1°F28.4°C 53.4°F11.9°C 36% 1.2 mph W1.9 kmh W 3.5 mph5.6 kmh 30.02 in1016.6 mb - 0.00 in0.0 mm 0.00 in0.0 mm
11:30 AM 84.4°F29.1°C 54.5°F12.5°C 36% 4.6 mph NW7.4 kmh NW 5.8 mph9.3 kmh 30.02 in1016.6 mb - 0.00 in0.0 mm 0.00 in0.0 mm
11:40 AM 84.6°F29.2°C 54.7°F12.6°C 36% 1.2 mph NW1.9 kmh NW 3.5 mph5.6 kmh 30.02 in1016.6 mb - 0.00 in0.0 mm 0.00 in0.0 mm
11:50 AM 84.7°F29.3°C 54.8°F12.7°C 36% 5.8 mph NNW9.3 kmh NNW 8.1 mph13.0 kmh 30.02 in1016.6 mb - 0.00 in0.0 mm 0.00 in0.0 mm
12:00 PM 83.4°F28.6°C 53.7°F12.1°C 36% 2.3 mph N3.7 kmh N 5.8 mph9.3 kmh 30.02 in1016.6 mb - 0.00 in0.0 mm 0.00 in0.0 mm
12:10 PM 84.1°F28.9°C 54.2°F12.3°C 36% 1.2 mph NW1.9 kmh NW 5.8 mph9.3 kmh 30.02 in1016.6 mb - 0.00 in0.0 mm 0.00 in0.0 mm
12:20 PM 84.2°F29.0°C 54.4°F12.4°C 36% 3.5 mph NNW5.6 kmh NNW 5.8 mph9.3 kmh 30.02 in1016.6 mb - 0.00 in0.0 mm 0.00 in0.0 mm
12:30 PM 84.3°F29.1°C 53.7°F12.1°C 35% 4.6 mph NNW7.4 kmh NNW 5.8 mph9.3 kmh 30.02 in1016.6 mb - 0.00 in0.0 mm 0.00 in0.0 mm
12:40 PM 83.8°F28.8°C 53.2°F11.8°C 35% 3.5 mph W5.6 kmh W 5.8 mph9.3 kmh 30.02 in1016.6 mb - 0.00 in0.0 mm 0.00 in0.0 mm
12:50 PM 83.9°F28.8°C 53.3°F11.8°C 35% 3.5 mph NW5.6 kmh NW 5.8 mph9.3 kmh 30.02 in1016.6 mb - 0.00 in0.0 mm 0.00 in0.0 mm
01:00 PM 83.6°F28.7°C 53.8°F12.1°C 36% 3.5 mph NW5.6 kmh NW 5.8 mph9.3 kmh 30.02 in1016.6 mb - 0.00 in0.0 mm 0.00 in0.0 mm
01:10 PM 84.5°F29.2°C 54.6°F12.6°C 36% 1.2 mph W1.9 kmh W 3.5 mph5.6 kmh 30.02 in1016.6 mb - 0.00 in0.0 mm 0.00 in0.0 mm
01:20 PM 84.8°F29.3°C 53.3°F11.8°C 34% 3.5 mph NW5.6 kmh NW 5.8 mph9.3 kmh 30.02 in1016.6 mb - 0.00 in0.0 mm 0.00 in0.0 mm
01:30 PM 84.9°F29.4°C 54.9°F12.7°C 36% 1.2 mph NW1.9 kmh NW 3.5 mph5.6 kmh 30.02 in1016.6 mb - 0.00 in0.0 mm 0.00 in0.0 mm
01:40 PM 83.8°F28.8°C 54.0°F12.2°C 36% Calm Calm 2.3 mph3.7 kmh 29.99 in1015.6 mb - 0.00 in0.0 mm 0.00 in0.0 mm
01:50 PM 83.3°F28.5°C 53.6°F12.0°C 36% 2.3 mph NW3.7 kmh NW 2.3 mph3.7 kmh 29.99 in1015.6 mb - 0.00 in0.0 mm 0.00 in0.0 mm
02:00 PM 83.1°F28.4°C 53.3°F11.8°C 36% Calm Calm 3.5 mph5.6 kmh 29.99 in1015.6 mb - 0.00 in0.0 mm 0.00 in0.0 mm
02:10 PM 84.4°F29.1°C 54.5°F12.5°C 36% Calm Calm 3.5 mph5.6 kmh 29.99 in1015.6 mb - 0.00 in0.0 mm 0.00 in0.0 mm
02:20 PM 84.4°F29.1°C 54.5°F12.5°C 36% 2.3 mph W3.7 kmh W 3.5 mph5.6 kmh 29.99 in1015.6 mb - 0.00 in0.0 mm 0.00 in0.0 mm
02:30 PM 83.4°F28.6°C 53.7°F12.1°C 36% Calm Calm -- 29.99 in1015.6 mb - 0.00 in0.0 mm 0.00 in0.0 mm
02:40 PM 82.7°F28.2°C 53.0°F11.7°C 36% Calm Calm 2.3 mph3.7 kmh 29.99 in1015.6 mb - 0.00 in0.0 mm 0.00 in0.0 mm
02:50 PM 80.5°F26.9°C 52.6°F11.4°C 38% 2.3 mph N3.7 kmh N 3.5 mph5.6 kmh 29.99 in1015.6 mb - 0.00 in0.0 mm 0.00 in0.0 mm
03:00 PM 80.3°F26.8°C 52.4°F11.3°C 38% Calm Calm 3.5 mph5.6 kmh 29.99 in1015.6 mb - 0.00 in0.0 mm 0.00 in0.0 mm
03:10 PM 81.6°F27.6°C 52.8°F11.6°C 37% 3.5 mph SSW5.6 kmh SSW 3.5 mph5.6 kmh 29.99 in1015.6 mb - 0.00 in0.0 mm 0.00 in0.0 mm
03:20 PM 82.0°F27.8°C 53.2°F11.8°C 37% 4.6 mph SSW7.4 kmh SSW 5.8 mph9.3 kmh 29.99 in1015.6 mb - 0.00 in0.0 mm 0.00 in0.0 mm
03:30 PM 81.6°F27.6°C 52.8°F11.6°C 37% 3.5 mph S5.6 kmh S 5.8 mph9.3 kmh 29.99 in1015.6 mb - 0.00 in0.0 mm 0.00 in0.0 mm
03:40 PM 80.5°F26.9°C 52.6°F11.4°C 38% Calm Calm -- 29.99 in1015.6 mb - 0.00 in0.0 mm 0.00 in0.0 mm
03:50 PM 81.5°F27.5°C 52.7°F11.5°C 37% 3.5 mph SSE5.6 kmh SSE 3.5 mph5.6 kmh 29.99 in1015.6 mb - 0.00 in0.0 mm 0.00 in0.0 mm
04:00 PM 81.2°F27.3°C 52.4°F11.3°C 37% 4.6 mph S7.4 kmh S 5.8 mph9.3 kmh 29.99 in1015.6 mb - 0.00 in0.0 mm 0.00 in0.0 mm
04:10 PM 80.6°F27.0°C 51.9°F11.1°C 37% 4.6 mph SE7.4 kmh SE 9.2 mph14.8 kmh 29.99 in1015.6 mb - 0.00 in0.0 mm 0.00 in0.0 mm
04:20 PM 80.5°F26.9°C 52.6°F11.4°C 38% 2.3 mph S3.7 kmh S 3.5 mph5.6 kmh 29.96 in1014.6 mb - 0.00 in0.0 mm 0.00 in0.0 mm
04:30 PM 80.4°F26.9°C 52.4°F11.3°C 38% 3.5 mph SE5.6 kmh SE 3.5 mph5.6 kmh 29.96 in1014.6 mb - 0.00 in0.0 mm 0.00 in0.0 mm
04:40 PM 80.2°F26.8°C 52.3°F11.3°C 38% 4.6 mph S7.4 kmh S 5.8 mph9.3 kmh 29.99 in1015.6 mb - 0.00 in0.0 mm 0.00 in0.0 mm
04:50 PM 80.3°F26.8°C 52.4°F11.3°C 38% 3.5 mph S5.6 kmh S 8.1 mph13.0 kmh 29.96 in1014.6 mb - 0.00 in0.0 mm 0.00 in0.0 mm
05:00 PM 79.4°F26.3°C 51.6°F10.9°C 38% 3.5 mph S5.6 kmh S 5.8 mph9.3 kmh 29.96 in1014.6 mb - 0.00 in0.0 mm 0.00 in0.0 mm
05:10 PM 79.0°F26.1°C 51.2°F10.7°C 38% 3.5 mph S5.6 kmh S 4.6 mph7.4 kmh 29.96 in1014.6 mb - 0.00 in0.0 mm 0.00 in0.0 mm
05:20 PM 78.4°F25.8°C 51.4°F10.8°C 39% 3.5 mph S5.6 kmh S 5.8 mph9.3 kmh 29.96 in1014.6 mb - 0.00 in0.0 mm 0.00 in0.0 mm
05:30 PM 78.1°F25.6°C 51.1°F10.6°C 39% 3.5 mph S5.6 kmh S 3.5 mph5.6 kmh 29.96 in1014.6 mb - 0.00 in0.0 mm 0.00 in0.0 mm
05:40 PM 77.7°F25.4°C 50.8°F10.4°C 39% Calm Calm -- 29.96 in1014.6 mb - 0.00 in0.0 mm 0.00 in0.0 mm
05:50 PM 77.4°F25.2°C 51.1°F10.6°C 40% Calm Calm -- 29.96 in1014.6 mb - 0.00 in0.0 mm 0.00 in0.0 mm
06:00 PM 76.8°F24.9°C 52.0°F11.1°C 42% Calm Calm -- 29.96 in1014.6 mb - 0.00 in0.0 mm 0.00 in0.0 mm
06:10 PM 76.1°F24.5°C 52.0°F11.1°C 43% Calm Calm -- 29.96 in1014.6 mb - 0.00 in0.0 mm 0.00 in0.0 mm
06:20 PM 75.2°F24.0°C 54.2°F12.3°C 48% Calm Calm -- 29.98 in1015.2 mb - 0.00 in0.0 mm 0.00 in0.0 mm
06:30 PM 74.7°F23.7°C 52.5°F11.4°C 46% Calm Calm -- 29.99 in1015.6 mb - 0.00 in0.0 mm 0.00 in0.0 mm
06:40 PM 73.9°F23.3°C 52.4°F11.3°C 47% Calm Calm -- 29.99 in1015.6 mb - 0.00 in0.0 mm 0.00 in0.0 mm
06:50 PM 73.2°F22.9°C 52.9°F11.6°C 49% Calm Calm -- 29.99 in1015.6 mb - 0.00 in0.0 mm 0.00 in0.0 mm
07:00 PM 72.6°F22.6°C 52.3°F11.3°C 49% Calm Calm -- 29.99 in1015.6 mb - 0.00 in0.0 mm 0.00 in0.0 mm
07:10 PM 71.9°F22.2°C 52.2°F11.2°C 50% Calm Calm -- 29.96 in1014.6 mb - 0.00 in0.0 mm 0.00 in0.0 mm
07:20 PM 71.1°F21.7°C 51.5°F10.8°C 50% Calm Calm -- 29.98 in1015.2 mb - 0.00 in0.0 mm 0.00 in0.0 mm
07:30 PM 70.3°F21.3°C 51.3°F10.7°C 51% Calm Calm -- 29.99 in1015.6 mb - 0.00 in0.0 mm 0.00 in0.0 mm
07:40 PM 69.7°F20.9°C 50.7°F10.4°C 51% Calm Calm -- 29.99 in1015.6 mb - 0.00 in0.0 mm 0.00 in0.0 mm
07:50 PM 69.3°F20.7°C 50.9°F10.5°C 52% Calm Calm -- 29.99 in1015.6 mb - 0.00 in0.0 mm 0.00 in0.0 mm
08:00 PM 68.8°F20.4°C 50.9°F10.5°C 53% Calm Calm -- 29.99 in1015.6 mb - 0.00 in0.0 mm 0.00 in0.0 mm
08:10 PM 68.1°F20.1°C 50.8°F10.4°C 54% Calm Calm -- 29.99 in1015.6 mb - 0.00 in0.0 mm 0.00 in0.0 mm
08:30 PM 67.5°F19.7°C 50.2°F10.1°C 54% Calm Calm -- 30.02 in1016.6 mb - 0.00 in0.0 mm 0.00 in0.0 mm
08:40 PM 67.1°F19.5°C 50.4°F10.2°C 55% Calm Calm -- 30.02 in1016.6 mb - 0.00 in0.0 mm 0.00 in0.0 mm
08:50 PM 66.7°F19.3°C 50.1°F10.1°C 55% Calm Calm -- 30.02 in1016.6 mb - 0.00 in0.0 mm 0.00 in0.0 mm
09:00 PM 66.5°F19.2°C 50.3°F10.2°C 56% Calm Calm -- 30.02 in1016.6 mb - 0.00 in0.0 mm 0.00 in0.0 mm
09:10 PM 66.4°F19.1°C 50.2°F10.1°C 56% Calm Calm -- 30.02 in1016.6 mb - 0.00 in0.0 mm 0.00 in0.0 mm
09:20 PM 66.4°F19.1°C 50.7°F10.4°C 57% Calm Calm -- 30.02 in1016.6 mb - 0.00 in0.0 mm 0.00 in0.0 mm
09:30 PM 66.2°F19.0°C 50.5°F10.3°C 57% Calm Calm -- 30.02 in1016.6 mb - 0.00 in0.0 mm 0.00 in0.0 mm
09:40 PM 66.1°F18.9°C 50.4°F10.2°C 57% Calm Calm -- 30.02 in1016.6 mb - 0.00 in0.0 mm 0.00 in0.0 mm
09:50 PM 65.7°F18.7°C 50.0°F10.0°C 57% Calm Calm -- 30.02 in1016.6 mb - 0.00 in0.0 mm 0.00 in0.0 mm
10:00 PM 65.5°F18.6°C 50.3°F10.2°C 58% Calm Calm -- 30.02 in1016.6 mb - 0.00 in0.0 mm 0.00 in0.0 mm
10:10 PM 65.3°F18.5°C 50.1°F10.1°C 58% Calm Calm -- 30.02 in1016.6 mb - 0.00 in0.0 mm 0.00 in0.0 mm
10:20 PM 65.1°F18.4°C 50.0°F10.0°C 58% Calm Calm -- 30.02 in1016.6 mb - 0.00 in0.0 mm 0.00 in0.0 mm
10:30 PM 64.8°F18.2°C 49.6°F9.8°C 58% Calm Calm -- 30.02 in1016.6 mb - 0.00 in0.0 mm 0.00 in0.0 mm
10:40 PM 64.6°F18.1°C 49.9°F9.9°C 59% Calm Calm -- 30.02 in1016.6 mb - 0.00 in0.0 mm 0.00 in0.0 mm
10:50 PM 64.4°F18.0°C 49.8°F9.9°C 59% Calm Calm -- 30.02 in1016.6 mb - 0.00 in0.0 mm 0.00 in0.0 mm
11:00 PM 64.0°F17.8°C 49.4°F9.7°C 59% Calm Calm -- 30.02 in1016.6 mb - 0.00 in0.0 mm 0.00 in0.0 mm
11:10 PM 64.0°F17.8°C 49.4°F9.7°C 59% Calm Calm -- 30.05 in1017.6 mb - 0.00 in0.0 mm 0.00 in0.0 mm
11:20 PM 63.9°F17.7°C 49.2°F9.6°C 59% Calm Calm -- 30.05 in1017.6 mb - 0.00 in0.0 mm 0.00 in0.0 mm
11:30 PM 63.5°F17.5°C 49.4°F9.7°C 60% Calm Calm -- 30.05 in1017.6 mb - 0.00 in0.0 mm 0.00 in0.0 mm
11:40 PM 63.2°F17.3°C 49.1°F9.5°C 60% Calm Calm -- 30.05 in1017.6 mb - 0.00 in0.0 mm 0.00 in0.0 mm
11:50 PM 63.0°F17.2°C 48.9°F9.4°C 60% Calm Calm -- 30.02 in1016.6 mb - 0.00 in0.0 mm 0.00 in0.0 mm